Terminal Aerodrome Forecast
Issued by NWS

Home | Current Version | Previous Version | Graphics & Text | Print | Product List | Glossary On
Versions: 1 2 3 4 5 6 7 8 9 10 11 12 13 14 15 16 17 18 19
000
FTUS43 KICT 261028 AAA
TAFHUT
TAF AMD
KHUT 261028Z 2610/2706 05004KT P6SM FEW008 SCT012
      TEMPO 2610/2614 4SM BR SCT008 BKN012
     FM261500 09007KT P6SM SCT030
     FM261900 12011KT P6SM FEW030
     FM270100 14006KT P6SM SCT030=

USA.gov is the U.S. government's official web portal to all federal, state and local government web resources and services.